Time;durP1;ratioP1;P1;durP2;ratioP2;P2;SDS_P1;SDS_P2;PMS_P1;PMS_P2;Temp;Humidity;BMP_temperature;BMP_pressure;BME280_temperature;BME280_humidity;BME280_pressure;Samples;Min_cycle;Max_cycle;Signal;HPM_P1;HPM_P2
2023/01/15 00:01:30;;;;;;;;;;;8.00;99.90;;;;;;5064013;28;19923;-62
2023/01/15 00:03:57;;;;;;;;;;;8.00;99.90;;;;;;5063902;28;19912;-63
2023/01/15 00:06:23;;;;;;;;;;;8.00;99.90;;;;;;5063861;28;19916;-62
2023/01/15 00:08:49;;;;;;;;;;;7.90;99.90;;;;;;5067557;28;19912;-63
2023/01/15 00:11:14;;;;;;;;;;;7.90;99.90;;;;;;5064731;28;20407;-63
2023/01/15 00:13:41;;;;;;;;;;;7.80;99.90;;;;;;5061066;28;20295;-62
2023/01/15 00:16:07;;;;;;;;;;;7.70;99.90;;;;;;5060319;28;19973;-61
2023/01/15 00:18:33;;;;;;;;;;;7.70;99.90;;;;;;5062955;28;19935;-63
2023/01/15 00:21:02;;;;;;;;;;;7.70;99.90;;;;;;5065829;28;20567;-63
2023/01/15 00:28:58;;;;;;;;;;;7.60;99.90;;;;;;5069837;28;20373;-62
2023/01/15 00:31:23;;;;;;;;;;;7.50;99.90;;;;;;5066377;28;19920;-59
2023/01/15 00:33:49;;;;;;;;;;;7.50;99.90;;;;;;5066193;28;20051;-60
2023/01/15 00:36:14;;;;;;;;;;;7.40;99.90;;;;;;5067015;28;19997;-61
2023/01/15 00:38:39;;;;;;;;;;;7.30;99.90;;;;;;5068865;28;19920;-62
2023/01/15 00:41:05;;;;;;;;;;;7.30;99.90;;;;;;5067720;28;20390;-63
2023/01/15 00:43:30;;;;;;;;;;;7.20;99.90;;;;;;5067210;28;20329;-64
2023/01/15 00:45:56;;;;;;;;;;;7.20;99.90;;;;;;5070707;28;20353;-62
2023/01/15 00:48:21;;;;;;;;;;;7.20;99.90;;;;;;5069722;28;19917;-62
2023/01/15 00:50:47;;;;;;;;;;;7.10;99.90;;;;;;5070635;28;19924;-61
2023/01/15 00:53:12;;;;;;;;;;;7.10;99.90;;;;;;5070143;28;20016;-64
2023/01/15 00:55:37;;;;;;;;;;;7.10;99.90;;;;;;5073913;28;19908;-61
2023/01/15 00:58:03;;;;;;;;;;;7.10;99.90;;;;;;5074923;28;19908;-63
2023/01/15 01:00:28;;;;;;;;;;;7.10;99.90;;;;;;5074035;28;19938;-62
2023/01/15 01:02:55;;;;;;;;;;;7.10;99.90;;;;;;5073468;28;19962;-61
2023/01/15 01:05:20;;;;;;;;;;;7.10;99.90;;;;;;5072301;28;20102;-63
2023/01/15 01:07:46;;;;;;;;;;;7.10;99.90;;;;;;5070956;28;20012;-62
2023/01/15 01:10:11;;;;;;;;;;;7.10;99.90;;;;;;5070788;28;19919;-62
2023/01/15 01:12:36;;;;;;;;;;;7.10;99.90;;;;;;5065099;28;19917;-63
2023/01/15 01:15:02;;;;;;;;;;;7.10;99.90;;;;;;5068566;28;19970;-64
2023/01/15 01:17:28;;;;;;;;;;;7.10;99.90;;;;;;5069928;28;20450;-63
2023/01/15 01:19:53;;;;;;;;;;;7.10;99.90;;;;;;5069065;28;19916;-64
2023/01/15 01:22:18;;;;;;;;;;;7.10;99.90;;;;;;5069676;28;19920;-64
2023/01/15 01:24:44;;;;;;;;;;;7.00;99.90;;;;;;5066965;28;19912;-63
2023/01/15 01:27:09;;;;;;;;;;;7.00;99.90;;;;;;5072186;28;19948;-63
2023/01/15 01:29:35;;;;;;;;;;;7.00;99.90;;;;;;5072809;28;20311;-64
2023/01/15 01:32:00;;;;;;;;;;;7.00;99.90;;;;;;5071193;28;20339;-64
2023/01/15 01:34:26;;;;;;;;;;;7.00;99.90;;;;;;5069920;28;19916;-63
2023/01/15 01:36:51;;;;;;;;;;;7.00;99.90;;;;;;5071716;28;19923;-61
2023/01/15 01:39:18;;;;;;;;;;;6.90;99.90;;;;;;5070841;28;19916;-63
2023/01/15 01:41:44;;;;;;;;;;;7.00;99.90;;;;;;5065515;28;20437;-64
2023/01/15 01:44:28;;;;;;;;;;;7.00;99.90;;;;;;5072105;28;19919;-63
2023/01/15 01:46:53;;;;;;;;;;;7.00;99.90;;;;;;5069104;28;19923;-66
2023/01/15 01:49:19;;;;;;;;;;;7.10;99.90;;;;;;5073849;28;19920;-61
2023/01/15 01:51:47;;;;;;;;;;;7.10;99.90;;;;;;5070970;28;19916;-62
2023/01/15 01:54:15;;;;;;;;;;;7.10;99.90;;;;;;5071373;28;19912;-63
2023/01/15 01:56:40;;;;;;;;;;;7.20;99.90;;;;;;5066946;28;19916;-63
2023/01/15 01:59:07;;;;;;;;;;;7.20;99.90;;;;;;5073256;28;19912;-63
2023/01/15 02:01:33;;;;;;;;;;;7.20;99.90;;;;;;5069700;28;19931;-63
2023/01/15 02:03:58;;;;;;;;;;;7.20;99.90;;;;;;5067388;28;20070;-62
2023/01/15 02:06:24;;;;;;;;;;;7.20;99.90;;;;;;5072799;28;19908;-64
2023/01/15 02:08:50;;;;;;;;;;;7.20;99.90;;;;;;5071169;28;19917;-63
2023/01/15 02:11:17;;;;;;;;;;;7.20;99.90;;;;;;5071984;28;19918;-62
2023/01/15 02:13:45;;;;;;;;;;;7.30;99.90;;;;;;5071265;28;19916;-62
2023/01/15 02:16:18;;;;;;;;;;;7.30;99.90;;;;;;5070686;28;20367;-64
2023/01/15 02:19:04;;;;;;;;;;;7.30;99.90;;;;;;5073030;28;19923;-64
2023/01/15 02:21:29;;;;;;;;;;;7.30;99.90;;;;;;5067895;28;20002;-63
2023/01/15 02:23:57;;;;;;;;;;;7.30;99.90;;;;;;5062828;28;20028;-63
2023/01/15 02:26:29;;;;;;;;;;;7.20;99.90;;;;;;5070560;28;19920;-62
2023/01/15 02:28:56;;;;;;;;;;;7.20;99.90;;;;;;5066281;28;20382;-63
2023/01/15 02:31:27;;;;;;;;;;;7.10;99.90;;;;;;5066650;28;19917;-63
2023/01/15 02:34:05;;;;;;;;;;;7.20;99.90;;;;;;5067417;28;19919;-63
2023/01/15 02:36:33;;;;;;;;;;;7.10;99.90;;;;;;5068224;28;20456;-62
2023/01/15 02:39:00;;;;;;;;;;;7.20;99.90;;;;;;5070956;28;19920;-63
2023/01/15 02:41:29;;;;;;;;;;;7.10;99.90;;;;;;5069661;28;19916;-63
2023/01/15 02:43:56;;;;;;;;;;;7.10;99.90;;;;;;5061661;28;19938;-64
2023/01/15 02:46:25;;;;;;;;;;;7.10;99.90;;;;;;5071474;28;19921;-63
2023/01/15 02:48:52;;;;;;;;;;;7.10;99.90;;;;;;5063440;28;19934;-63
2023/01/15 02:51:20;;;;;;;;;;;7.00;99.90;;;;;;5067931;28;20333;-63
2023/01/15 02:53:47;;;;;;;;;;;7.10;99.90;;;;;;5061182;28;19931;-63
2023/01/15 02:56:18;;;;;;;;;;;7.10;99.90;;;;;;5070537;28;19913;-63
2023/01/15 02:58:44;;;;;;;;;;;7.10;99.90;;;;;;5068154;28;19917;-63
2023/01/15 03:01:18;;;;;;;;;;;7.10;99.90;;;;;;5060557;28;19935;-64
2023/01/15 03:03:46;;;;;;;;;;;7.00;99.90;;;;;;5061285;28;19912;-62
2023/01/15 03:06:24;;;;;;;;;;;7.10;99.90;;;;;;5069667;28;19916;-62
2023/01/15 03:08:49;;;;;;;;;;;7.20;99.90;;;;;;5066284;28;19924;-63
2023/01/15 03:11:17;;;;;;;;;;;7.10;99.90;;;;;;5069537;28;19917;-63
2023/01/15 03:13:43;;;;;;;;;;;7.10;99.90;;;;;;5066694;28;19917;-61
2023/01/15 03:19:05;;;;;;;;;;;7.20;99.90;;;;;;5068340;28;19975;-62
2023/01/15 03:21:35;;;;;;;;;;;7.20;99.90;;;;;;5063256;28;19916;-63
2023/01/15 03:24:03;;;;;;;;;;;7.20;99.90;;;;;;5066773;28;19913;-60
2023/01/15 03:26:29;;;;;;;;;;;7.30;99.90;;;;;;5069679;28;20443;-61
2023/01/15 03:28:55;;;;;;;;;;;7.40;99.90;;;;;;5067559;28;19924;-61
2023/01/15 03:31:20;;;;;;;;;;;7.40;99.90;;;;;;5064252;28;20363;-61
2023/01/15 03:33:46;;;;;;;;;;;7.50;99.90;;;;;;5066034;28;19919;-60
2023/01/15 03:36:11;;;;;;;;;;;7.50;99.90;;;;;;5065190;28;19913;-61
2023/01/15 03:38:37;;;;;;;;;;;7.60;99.90;;;;;;5063214;28;20337;-61
2023/01/15 03:41:22;;;;;;;;;;;7.60;99.90;;;;;;5064685;28;19919;-61
2023/01/15 03:44:06;;;;;;;;;;;7.50;99.90;;;;;;5065983;28;19916;-61
2023/01/15 03:46:31;;;;;;;;;;;7.50;99.90;;;;;;5066096;28;19919;-61
2023/01/15 03:49:23;;;;;;;;;;;7.50;99.90;;;;;;5068392;28;19916;-61
2023/01/15 03:51:55;;;;;;;;;;;7.50;99.90;;;;;;5062306;28;19946;-61
2023/01/15 03:54:25;;;;;;;;;;;7.50;99.90;;;;;;5069440;28;19919;-61
2023/01/15 03:57:00;;;;;;;;;;;7.50;99.90;;;;;;5069808;28;19935;-60
2023/01/15 03:59:38;;;;;;;;;;;7.50;99.90;;;;;;5060479;28;20023;-60
2023/01/15 04:02:06;;;;;;;;;;;7.50;99.90;;;;;;5065413;28;19954;-61
2023/01/15 04:04:32;;;;;;;;;;;7.50;99.90;;;;;;5067587;28;19924;-61
2023/01/15 04:06:58;;;;;;;;;;;7.50;99.90;;;;;;5067741;28;20003;-61
2023/01/15 04:09:24;;;;;;;;;;;7.50;99.90;;;;;;5060795;28;19912;-61
2023/01/15 04:11:49;;;;;;;;;;;7.50;99.90;;;;;;5065447;28;19916;-62
2023/01/15 04:14:15;;;;;;;;;;;7.40;99.90;;;;;;5064481;28;19958;-61
2023/01/15 04:16:40;;;;;;;;;;;7.40;99.90;;;;;;5067261;28;19916;-62
2023/01/15 04:19:06;;;;;;;;;;;7.40;99.90;;;;;;5063238;28;19913;-62
2023/01/15 04:21:31;;;;;;;;;;;7.40;99.90;;;;;;5068561;28;20349;-61
2023/01/15 04:23:57;;;;;;;;;;;7.50;99.90;;;;;;5063937;28;19924;-61
2023/01/15 04:26:22;;;;;;;;;;;7.40;99.90;;;;;;5067872;28;19959;-61
2023/01/15 04:28:48;;;;;;;;;;;7.40;99.90;;;;;;5069573;28;20389;-62
2023/01/15 04:31:13;;;;;;;;;;;7.40;99.90;;;;;;5070321;28;19912;-61
2023/01/15 04:33:39;;;;;;;;;;;7.40;99.90;;;;;;5071458;28;19919;-61
2023/01/15 04:36:04;;;;;;;;;;;7.50;99.90;;;;;;5073131;28;19912;-60
2023/01/15 04:38:30;;;;;;;;;;;7.50;99.90;;;;;;5062553;28;19920;-61
2023/01/15 04:44:06;;;;;;;;;;;7.40;99.90;;;;;;5052661;28;19923;-62
2023/01/15 04:46:33;;;;;;;;;;;7.40;99.90;;;;;;5069429;28;19970;-62
2023/01/15 04:48:58;;;;;;;;;;;7.40;99.90;;;;;;5069688;28;19927;-62
2023/01/15 04:51:24;;;;;;;;;;;7.40;99.90;;;;;;5065320;28;20271;-61
2023/01/15 04:53:49;;;;;;;;;;;7.40;99.90;;;;;;5068404;28;19916;-62
2023/01/15 04:56:14;;;;;;;;;;;7.30;99.90;;;;;;5072210;28;19912;-61
2023/01/15 04:58:40;;;;;;;;;;;7.30;99.90;;;;;;5073384;28;19920;-61
2023/01/15 05:01:10;;;;;;;;;;;7.40;99.90;;;;;;5065030;28;19927;-59
2023/01/15 05:03:35;;;;;;;;;;;7.40;99.90;;;;;;5061593;28;20593;-62
2023/01/15 05:06:01;;;;;;;;;;;7.40;99.90;;;;;;5068850;28;20011;-62
2023/01/15 05:08:27;;;;;;;;;;;7.40;99.90;;;;;;5069519;28;19919;-62
2023/01/15 05:10:52;;;;;;;;;;;7.40;99.90;;;;;;5065927;28;20383;-59
2023/01/15 05:13:18;;;;;;;;;;;7.30;99.90;;;;;;5064428;28;19916;-62
2023/01/15 05:15:45;;;;;;;;;;;7.30;99.90;;;;;;5064973;28;19920;-62
2023/01/15 05:18:13;;;;;;;;;;;7.30;99.90;;;;;;5068641;28;20305;-62
2023/01/15 05:20:42;;;;;;;;;;;7.40;99.90;;;;;;5068296;28;19916;-62
2023/01/15 05:23:07;;;;;;;;;;;7.40;99.90;;;;;;5063033;28;20370;-61
2023/01/15 05:25:35;;;;;;;;;;;7.50;99.90;;;;;;5066776;28;19999;-61
2023/01/15 05:28:00;;;;;;;;;;;7.40;99.90;;;;;;5073415;28;19909;-62
2023/01/15 05:30:26;;;;;;;;;;;7.60;99.90;;;;;;5071924;28;19917;-61
2023/01/15 05:32:51;;;;;;;;;;;7.50;99.90;;;;;;5067359;28;19913;-62
2023/01/15 05:35:17;;;;;;;;;;;7.50;99.90;;;;;;5065651;28;19963;-62
2023/01/15 05:37:42;;;;;;;;;;;7.50;99.90;;;;;;5070622;28;19923;-62
2023/01/15 05:40:08;;;;;;;;;;;7.50;99.90;;;;;;5073791;28;19916;-62
2023/01/15 05:42:33;;;;;;;;;;;7.50;99.90;;;;;;5066594;28;20126;-62
2023/01/15 05:44:59;;;;;;;;;;;7.50;99.90;;;;;;5071452;28;19916;-62
2023/01/15 05:47:24;;;;;;;;;;;7.60;99.90;;;;;;5068089;28;20386;-61
2023/01/15 05:49:50;;;;;;;;;;;7.60;99.90;;;;;;5065781;28;20266;-61
2023/01/15 05:52:15;;;;;;;;;;;7.60;99.90;;;;;;5067244;28;19917;-61
2023/01/15 05:54:41;;;;;;;;;;;7.60;99.90;;;;;;5071530;28;19912;-60
2023/01/15 05:57:09;;;;;;;;;;;7.50;99.90;;;;;;5071262;28;19908;-61
2023/01/15 05:59:34;;;;;;;;;;;7.60;99.90;;;;;;5065410;28;19999;-62
2023/01/15 06:02:00;;;;;;;;;;;7.60;99.90;;;;;;5063441;28;20003;-63
2023/01/15 06:04:25;;;;;;;;;;;7.50;99.90;;;;;;5069676;28;19920;-62
2023/01/15 06:06:52;;;;;;;;;;;7.50;99.90;;;;;;5068709;28;19916;-61
2023/01/15 06:09:18;;;;;;;;;;;7.50;99.90;;;;;;5065350;28;19952;-62
2023/01/15 06:11:43;;;;;;;;;;;7.40;99.90;;;;;;5068296;28;19940;-62
2023/01/15 06:14:09;;;;;;;;;;;7.40;99.90;;;;;;5068428;28;20385;-63
2023/01/15 06:16:34;;;;;;;;;;;7.30;99.90;;;;;;5062982;28;20007;-63
2023/01/15 06:19:02;;;;;;;;;;;7.30;99.90;;;;;;5066282;28;20456;-63
2023/01/15 06:21:28;;;;;;;;;;;7.30;99.90;;;;;;5068613;28;20015;-63
2023/01/15 06:23:54;;;;;;;;;;;7.30;99.90;;;;;;5068384;28;20049;-63
2023/01/15 06:26:19;;;;;;;;;;;7.30;99.90;;;;;;5071555;28;20029;-63
2023/01/15 06:28:45;;;;;;;;;;;7.20;99.90;;;;;;5069505;28;19920;-62
2023/01/15 06:31:12;;;;;;;;;;;7.20;99.90;;;;;;5067694;28;19919;-62
2023/01/15 06:33:38;;;;;;;;;;;7.20;99.90;;;;;;5068647;28;19921;-62
2023/01/15 06:36:08;;;;;;;;;;;7.20;99.90;;;;;;5064805;28;19912;-62
2023/01/15 06:38:33;;;;;;;;;;;7.20;99.90;;;;;;5070919;28;19920;-62
2023/01/15 06:41:03;;;;;;;;;;;7.10;99.90;;;;;;5070324;28;19916;-63
2023/01/15 06:48:57;;;;;;;;;;;7.10;99.90;;;;;;5069879;28;19935;-63
2023/01/15 06:51:22;;;;;;;;;;;7.00;99.90;;;;;;5064733;28;20374;-62
2023/01/15 06:53:48;;;;;;;;;;;7.10;99.90;;;;;;5069189;28;20042;-62
2023/01/15 06:56:13;;;;;;;;;;;7.00;99.90;;;;;;5067860;28;19991;-63
2023/01/15 06:58:40;;;;;;;;;;;6.90;99.90;;;;;;5068027;28;19913;-62
2023/01/15 07:01:07;;;;;;;;;;;6.90;99.90;;;;;;5070731;28;20007;-63
2023/01/15 07:03:32;;;;;;;;;;;6.80;99.90;;;;;;5070450;28;19919;-60
2023/01/15 07:05:58;;;;;;;;;;;6.70;99.90;;;;;;5062895;28;19924;-62
2023/01/15 07:08:23;;;;;;;;;;;6.60;99.90;;;;;;5065916;28;19912;-61
2023/01/15 07:10:48;;;;;;;;;;;6.50;99.90;;;;;;5069080;28;20011;-62
2023/01/15 07:13:14;;;;;;;;;;;6.40;99.90;;;;;;5070623;28;19909;-63
2023/01/15 07:15:39;;;;;;;;;;;6.40;99.90;;;;;;5066333;28;19912;-63
2023/01/15 07:18:05;;;;;;;;;;;6.30;99.90;;;;;;5065283;28;20362;-63
2023/01/15 07:20:31;;;;;;;;;;;6.30;99.90;;;;;;5064206;28;19927;-61
2023/01/15 07:22:56;;;;;;;;;;;6.30;99.90;;;;;;5067842;28;20246;-62
2023/01/15 07:25:22;;;;;;;;;;;6.30;99.90;;;;;;5067032;28;19912;-62
2023/01/15 07:27:47;;;;;;;;;;;6.30;99.90;;;;;;5062362;28;19967;-61
2023/01/15 07:30:13;;;;;;;;;;;6.30;99.90;;;;;;5059664;28;19912;-62
2023/01/15 07:32:39;;;;;;;;;;;6.30;99.90;;;;;;5067058;28;19917;-63
2023/01/15 07:35:04;;;;;;;;;;;6.30;99.90;;;;;;5068616;28;19912;-62
2023/01/15 07:37:30;;;;;;;;;;;6.40;99.90;;;;;;5059136;28;20555;-62
2023/01/15 07:39:56;;;;;;;;;;;6.40;99.90;;;;;;5061974;28;19997;-62
2023/01/15 07:50:36;;;;;;;;;;;6.50;99.90;;;;;;5066290;28;19931;-62
2023/01/15 07:53:01;;;;;;;;;;;6.40;99.90;;;;;;5067952;28;20398;-62
2023/01/15 07:55:27;;;;;;;;;;;6.40;99.90;;;;;;5070462;28;20302;-63
2023/01/15 07:57:53;;;;;;;;;;;6.40;99.90;;;;;;5064306;28;19991;-61
2023/01/15 08:00:20;;;;;;;;;;;6.40;99.90;;;;;;5066729;28;19919;-62
2023/01/15 08:02:48;;;;;;;;;;;6.40;99.90;;;;;;5061315;28;20011;-62
2023/01/15 08:05:14;;;;;;;;;;;6.50;99.90;;;;;;5066539;28;19917;-63
2023/01/15 08:07:40;;;;;;;;;;;6.50;99.90;;;;;;5064621;28;19913;-62
2023/01/15 08:10:06;;;;;;;;;;;6.60;99.90;;;;;;5066145;28;19916;-62
2023/01/15 08:15:16;;;;;;;;;;;6.20;99.90;;;;;;5065810;28;20381;-61
2023/01/15 08:17:46;;;;;;;;;;;5.80;99.90;;;;;;5067568;28;19928;-62
2023/01/15 08:20:15;;;;;;;;;;;5.70;99.90;;;;;;5068021;28;19935;-61
2023/01/15 08:22:43;;;;;;;;;;;5.60;99.90;;;;;;5064042;28;19916;-62
2023/01/15 08:25:09;;;;;;;;;;;5.70;99.90;;;;;;5062724;28;20023;-62
2023/01/15 08:27:35;;;;;;;;;;;5.70;99.90;;;;;;5063008;28;20282;-59
2023/01/15 08:30:01;;;;;;;;;;;5.70;99.90;;;;;;5068867;28;20433;-61
2023/01/15 08:32:26;;;;;;;;;;;5.70;99.90;;;;;;5064735;28;20008;-62
2023/01/15 08:34:51;;;;;;;;;;;5.60;99.90;;;;;;5066611;28;19999;-62
2023/01/15 08:37:17;;;;;;;;;;;5.50;99.90;;;;;;5062031;28;20009;-62
2023/01/15 08:39:42;;;;;;;;;;;5.50;99.90;;;;;;5068298;28;19920;-62
2023/01/15 08:42:08;;;;;;;;;;;5.40;99.90;;;;;;5067651;28;20337;-62
2023/01/15 08:44:33;;;;;;;;;;;5.40;99.90;;;;;;5065198;28;20358;-62
2023/01/15 08:46:59;;;;;;;;;;;5.40;99.90;;;;;;5066410;28;19920;-62
2023/01/15 08:49:24;;;;;;;;;;;5.40;99.90;;;;;;5065826;28;19920;-62
2023/01/15 08:51:50;;;;;;;;;;;5.30;99.90;;;;;;5064939;28;19981;-62
2023/01/15 08:54:17;;;;;;;;;;;5.30;99.90;;;;;;5062562;28;20363;-51
2023/01/15 08:56:43;;;;;;;;;;;5.30;99.90;;;;;;5063305;28;19912;-56
2023/01/15 08:59:09;;;;;;;;;;;5.40;99.90;;;;;;5062826;28;19912;-54
2023/01/15 09:01:34;;;;;;;;;;;5.40;99.90;;;;;;5059858;28;20377;-54
2023/01/15 09:04:00;;;;;;;;;;;5.40;99.90;;;;;;5062069;28;19917;-55
2023/01/15 09:06:26;;;;;;;;;;;5.40;99.90;;;;;;5067261;28;20006;-54
2023/01/15 09:08:51;;;;;;;;;;;5.40;99.90;;;;;;5066112;28;19958;-56
2023/01/15 09:11:17;;;;;;;;;;;5.40;99.90;;;;;;5064338;28;20293;-53
2023/01/15 09:13:42;;;;;;;;;;;5.50;99.90;;;;;;5066347;28;20401;-53
2023/01/15 09:16:08;;;;;;;;;;;5.60;99.90;;;;;;5070089;28;20266;-54
2023/01/15 09:18:40;;;;;;;;;;;5.70;99.90;;;;;;5070651;28;19920;-56
2023/01/15 09:21:05;;;;;;;;;;;5.80;99.90;;;;;;5066246;28;19920;-54
2023/01/15 09:23:31;;;;;;;;;;;5.80;99.90;;;;;;5065651;28;20313;-56
2023/01/15 09:25:58;;;;;;;;;;;5.90;99.90;;;;;;5069577;28;19909;-52
2023/01/15 09:28:23;;;;;;;;;;;6.00;99.90;;;;;;5067790;28;19916;-52
2023/01/15 09:30:49;;;;;;;;;;;6.00;99.90;;;;;;5077013;22;20321;-57
2023/01/15 09:33:14;;;;;;;;;;;6.10;99.90;;;;;;5067781;28;19912;-58
2023/01/15 09:35:41;;;;;;;;;;;6.20;99.90;;;;;;5068260;28;19967;-57
2023/01/15 09:38:06;;;;;;;;;;;6.20;99.90;;;;;;5071608;28;19912;-56
2023/01/15 09:40:32;;;;;;;;;;;6.30;99.90;;;;;;5061917;28;19921;-58
2023/01/15 09:43:02;;;;;;;;;;;6.20;99.90;;;;;;5053744;28;19909;-58
2023/01/15 09:45:34;;;;;;;;;;;6.20;99.90;;;;;;5051416;28;19947;-58
2023/01/15 09:47:59;;;;;;;;;;;6.30;99.90;;;;;;5051916;28;20428;-60
2023/01/15 09:50:43;;;;;;;;;;;6.40;99.90;;;;;;5050980;28;19981;-58
2023/01/15 09:53:27;;;;;;;;;;;6.50;99.90;;;;;;5056592;28;20224;-59
2023/01/15 09:55:53;;;;;;;;;;;6.80;99.90;;;;;;5047255;28;19923;-59
2023/01/15 09:58:21;;;;;;;;;;;6.90;99.90;;;;;;5049772;28;19924;-59
2023/01/15 10:00:48;;;;;;;;;;;6.90;99.90;;;;;;5051017;28;19958;-60
2023/01/15 10:03:13;;;;;;;;;;;6.90;99.90;;;;;;5052136;28;20375;-59
2023/01/15 10:05:45;;;;;;;;;;;7.00;99.90;;;;;;5048487;28;19997;-59
2023/01/15 10:08:19;;;;;;;;;;;7.00;99.90;;;;;;5049714;28;19916;-59
2023/01/15 10:10:51;;;;;;;;;;;7.10;99.90;;;;;;5050988;28;19959;-59
2023/01/15 10:13:28;;;;;;;;;;;7.20;99.90;;;;;;5052058;28;19920;-59
2023/01/15 10:15:54;;;;;;;;;;;7.30;99.90;;;;;;5048641;28;19959;-58
2023/01/15 10:18:21;;;;;;;;;;;7.40;99.90;;;;;;5053378;28;19913;-58
2023/01/15 10:21:04;;;;;;;;;;;7.40;99.90;;;;;;5047778;28;19974;-59
2023/01/15 10:23:38;;;;;;;;;;;7.50;99.90;;;;;;5045765;28;19996;-59
2023/01/15 10:26:17;;;;;;;;;;;7.60;99.90;;;;;;5047676;28;19917;-58
2023/01/15 10:28:42;;;;;;;;;;;7.60;99.90;;;;;;5050117;28;20004;-57
2023/01/15 10:31:13;;;;;;;;;;;7.70;99.90;;;;;;5050789;28;20248;-58
2023/01/15 10:34:03;;;;;;;;;;;7.90;99.90;;;;;;5048097;28;19917;-58
2023/01/15 10:36:32;;;;;;;;;;;8.00;99.90;;;;;;5049831;28;20003;-58
2023/01/15 10:39:18;;;;;;;;;;;8.00;99.90;;;;;;5050191;28;21281;-58
2023/01/15 10:42:02;;;;;;;;;;;8.00;99.90;;;;;;5047362;28;19917;-57
2023/01/15 10:44:33;;;;;;;;;;;8.00;99.90;;;;;;5046216;28;19936;-57
2023/01/15 10:47:00;;;;;;;;;;;8.10;99.90;;;;;;5042363;28;20390;-57
2023/01/15 10:49:29;;;;;;;;;;;8.20;99.90;;;;;;5045253;28;19996;-58
2023/01/15 10:51:54;;;;;;;;;;;8.20;99.90;;;;;;5058586;28;20063;-57
2023/01/15 10:54:26;;;;;;;;;;;8.20;99.90;;;;;;5049984;28;20003;-57
2023/01/15 10:57:11;;;;;;;;;;;8.20;99.90;;;;;;5052205;28;19913;-58
2023/01/15 10:59:42;;;;;;;;;;;8.20;99.90;;;;;;5050271;28;20000;-57
2023/01/15 11:02:28;;;;;;;;;;;8.20;99.90;;;;;;5051323;28;19952;-57
2023/01/15 11:04:54;;;;;;;;;;;8.10;99.90;;;;;;5035809;28;19916;-57
2023/01/15 11:07:29;;;;;;;;;;;8.10;99.90;;;;;;5044414;28;20267;-57
2023/01/15 11:09:55;;;;;;;;;;;8.20;99.90;;;;;;5047838;28;19942;-58
2023/01/15 11:20:36;;;;;;;;;;;8.40;99.90;;;;;;5047086;28;19920;-58
2023/01/15 11:23:12;;;;;;;;;;;8.40;99.90;;;;;;5048009;28;20329;-55
2023/01/15 11:25:43;;;;;;;;;;;8.50;99.90;;;;;;5047903;28;19917;-58
2023/01/15 11:28:11;;;;;;;;;;;8.50;99.90;;;;;;5046998;28;19927;-56
2023/01/15 11:30:37;;;;;;;;;;;8.70;99.90;;;;;;5043255;28;19925;-57
2023/01/15 11:33:03;;;;;;;;;;;8.70;99.90;;;;;;5048510;28;19931;-58
2023/01/15 11:35:29;;;;;;;;;;;8.60;99.90;;;;;;5041021;28;19928;-60
2023/01/15 11:38:05;;;;;;;;;;;8.50;99.90;;;;;;5048609;28;20341;-59
2023/01/15 11:40:31;;;;;;;;;;;8.40;99.90;;;;;;5049374;28;19908;-59
2023/01/15 11:51:29;;;;;;;;;;;8.70;99.90;;;;;;5044783;28;19920;-58
2023/01/15 11:53:59;;;;;;;;;;;8.90;99.90;;;;;;5046382;28;19977;-57
2023/01/15 11:56:26;;;;;;;;;;;8.90;99.90;;;;;;5045797;28;19940;-57
2023/01/15 11:58:55;;;;;;;;;;;8.50;99.90;;;;;;5044966;28;20463;-58
2023/01/15 12:01:32;;;;;;;;;;;8.40;99.90;;;;;;5043633;28;19925;-59
2023/01/15 12:03:58;;;;;;;;;;;8.30;99.90;;;;;;5045726;28;20172;-58
2023/01/15 12:06:25;;;;;;;;;;;8.30;99.90;;;;;;5048853;28;20275;-58
2023/01/15 12:08:54;;;;;;;;;;;8.30;99.90;;;;;;5047659;28;19913;-57
2023/01/15 12:11:26;;;;;;;;;;;8.30;99.90;;;;;;5047768;28;19913;-59
2023/01/15 12:14:10;;;;;;;;;;;8.30;99.90;;;;;;5048793;28;19955;-57
2023/01/15 12:16:47;;;;;;;;;;;8.30;99.90;;;;;;5047367;28;19920;-58
2023/01/15 12:19:31;;;;;;;;;;;8.20;99.90;;;;;;5044599;28;19913;-57
2023/01/15 12:22:02;;;;;;;;;;;8.20;99.90;;;;;;5048041;28;19924;-59
2023/01/15 12:24:36;;;;;;;;;;;8.10;99.90;;;;;;5047847;28;19913;-58
2023/01/15 12:27:11;;;;;;;;;;;8.20;99.90;;;;;;5046278;28;19954;-57
2023/01/15 12:29:41;;;;;;;;;;;8.30;99.90;;;;;;5033456;28;19916;-57
2023/01/15 12:32:09;;;;;;;;;;;8.50;99.90;;;;;;5043977;28;19929;-59
2023/01/15 12:34:40;;;;;;;;;;;8.60;99.90;;;;;;5047024;28;19921;-59
2023/01/15 12:37:10;;;;;;;;;;;8.50;99.90;;;;;;5039135;28;20673;-58
2023/01/15 12:39:44;;;;;;;;;;;8.30;99.90;;;;;;5042624;28;20297;-58
2023/01/15 12:45:03;;;;;;;;;;;8.20;99.90;;;;;;5045123;28;19924;-59
2023/01/15 12:47:43;;;;;;;;;;;8.30;99.90;;;;;;5043427;28;20243;-58
2023/01/15 12:50:28;;;;;;;;;;;8.40;99.90;;;;;;5049936;28;19919;-59
2023/01/15 12:53:15;;;;;;;;;;;8.60;99.90;;;;;;5047360;28;19993;-59
2023/01/15 12:55:44;;;;;;;;;;;8.90;99.90;;;;;;5052043;28;19944;-59
2023/01/15 12:58:15;;;;;;;;;;;9.00;99.90;;;;;;5049433;28;20014;-57
2023/01/15 13:00:41;;;;;;;;;;;9.20;99.90;;;;;;5050391;28;19909;-57
2023/01/15 13:03:19;;;;;;;;;;;9.40;99.90;;;;;;5049216;28;19942;-57
2023/01/15 13:05:56;;;;;;;;;;;9.20;99.90;;;;;;5046068;28;19921;-57
2023/01/15 13:08:30;;;;;;;;;;;9.20;99.90;;;;;;5050807;28;19916;-57
2023/01/15 13:10:56;;;;;;;;;;;9.10;99.90;;;;;;5049070;28;20270;-58
2023/01/15 13:13:23;;;;;;;;;;;9.10;99.90;;;;;;5048495;28;20055;-58
2023/01/15 13:15:52;;;;;;;;;;;9.00;99.90;;;;;;5043330;28;19912;-58
2023/01/15 13:18:23;;;;;;;;;;;8.80;99.90;;;;;;5045152;28;20129;-56
2023/01/15 13:20:50;;;;;;;;;;;8.70;99.90;;;;;;5052258;28;19924;-58
2023/01/15 13:23:24;;;;;;;;;;;8.80;99.90;;;;;;5049072;28;19909;-59
2023/01/15 13:26:08;;;;;;;;;;;8.90;99.90;;;;;;5048005;28;19958;-57
2023/01/15 13:28:42;;;;;;;;;;;8.90;99.90;;;;;;5042501;28;19991;-56
2023/01/15 13:31:27;;;;;;;;;;;8.90;99.90;;;;;;5048730;28;19928;-56
2023/01/15 13:33:54;;;;;;;;;;;9.00;99.90;;;;;;5049888;28;19953;-55
2023/01/15 13:36:32;;;;;;;;;;;9.10;99.90;;;;;;5041539;28;19917;-58
2023/01/15 13:38:59;;;;;;;;;;;9.20;99.90;;;;;;5047434;28;20374;-58
2023/01/15 13:44:18;;;;;;;;;;;9.20;99.90;;;;;;5041599;28;19932;-57
2023/01/15 13:46:46;;;;;;;;;;;9.20;99.90;;;;;;5043370;28;19928;-59
2023/01/15 13:49:17;;;;;;;;;;;9.20;99.90;;;;;;5042800;28;20701;-58
2023/01/15 13:51:47;;;;;;;;;;;9.30;99.90;;;;;;5047342;28;20306;-57
2023/01/15 13:54:15;;;;;;;;;;;9.40;99.90;;;;;;5044844;28;20287;-57
2023/01/15 13:56:43;;;;;;;;;;;9.30;99.90;;;;;;5045968;28;20007;-59
2023/01/15 13:59:28;;;;;;;;;;;9.10;99.90;;;;;;5040107;28;20465;-59
2023/01/15 14:01:53;;;;;;;;;;;9.10;99.90;;;;;;5039115;28;19924;-57
2023/01/15 14:04:31;;;;;;;;;;;9.00;99.90;;;;;;5047636;28;20312;-59
2023/01/15 14:06:56;;;;;;;;;;;9.00;99.90;;;;;;5049933;28;19920;-58
2023/01/15 14:09:22;;;;;;;;;;;8.90;99.90;;;;;;5043354;28;19913;-57
2023/01/15 14:11:56;;;;;;;;;;;8.70;99.90;;;;;;5047261;28;19920;-58
2023/01/15 14:14:33;;;;;;;;;;;8.70;99.90;;;;;;5049769;28;20358;-58
2023/01/15 14:16:59;;;;;;;;;;;8.70;99.90;;;;;;5047895;28;19913;-58
2023/01/15 14:19:25;;;;;;;;;;;8.70;99.90;;;;;;5046922;28;19919;-55
2023/01/15 14:21:58;;;;;;;;;;;8.60;99.90;;;;;;5042442;28;20004;-58
2023/01/15 14:24:23;;;;;;;;;;;8.60;99.90;;;;;;5042567;28;19917;-55
2023/01/15 14:26:55;;;;;;;;;;;8.60;99.90;;;;;;5048052;28;19978;-58
2023/01/15 14:29:28;;;;;;;;;;;8.50;99.90;;;;;;5049351;28;19917;-56
2023/01/15 14:31:56;;;;;;;;;;;8.50;99.90;;;;;;5045330;28;19921;-57
2023/01/15 14:34:40;;;;;;;;;;;8.50;99.90;;;;;;5042071;28;19920;-57
2023/01/15 14:37:20;;;;;;;;;;;8.40;99.90;;;;;;5047981;28;19944;-57
2023/01/15 14:40:12;;;;;;;;;;;8.40;99.90;;;;;;5044148;28;19959;-58
2023/01/15 14:45:29;;;;;;;;;;;8.40;99.90;;;;;;5046128;28;19927;-59
2023/01/15 14:47:56;;;;;;;;;;;8.30;99.90;;;;;;5042698;28;19919;-58
2023/01/15 14:50:30;;;;;;;;;;;8.30;99.90;;;;;;5043732;28;19923;-57
2023/01/15 14:53:04;;;;;;;;;;;8.30;99.90;;;;;;5041313;28;19924;-58
2023/01/15 14:55:30;;;;;;;;;;;8.30;99.90;;;;;;5043939;28;20287;-55
2023/01/15 14:58:00;;;;;;;;;;;8.30;99.90;;;;;;5042668;28;20458;-58
2023/01/15 15:00:30;;;;;;;;;;;8.30;99.90;;;;;;5040915;28;19956;-57
2023/01/15 15:02:56;;;;;;;;;;;8.30;99.90;;;;;;5048075;28;19923;-56
2023/01/15 15:05:23;;;;;;;;;;;8.30;99.90;;;;;;5043978;28;19925;-58
2023/01/15 15:07:54;;;;;;;;;;;8.30;99.90;;;;;;5046584;28;20183;-57
2023/01/15 15:10:34;;;;;;;;;;;8.30;99.90;;;;;;5042637;28;19921;-57
2023/01/15 15:13:06;;;;;;;;;;;8.20;99.90;;;;;;5044628;28;19974;-57
2023/01/15 15:15:52;;;;;;;;;;;8.20;99.90;;;;;;5044458;28;19970;-60
2023/01/15 15:18:29;;;;;;;;;;;8.20;99.90;;;;;;5041744;28;20008;-58
2023/01/15 15:21:08;;;;;;;;;;;8.20;99.90;;;;;;5044995;28;19963;-59
2023/01/15 15:23:53;;;;;;;;;;;8.20;99.90;;;;;;5043748;28;19917;-56
2023/01/15 15:26:24;;;;;;;;;;;8.20;99.90;;;;;;5036455;28;20416;-58
2023/01/15 15:29:02;;;;;;;;;;;8.10;99.90;;;;;;5046555;28;19939;-59
2023/01/15 15:31:30;;;;;;;;;;;8.10;99.90;;;;;;5071689;22;19972;-56
2023/01/15 15:34:05;;;;;;;;;;;8.10;99.90;;;;;;5059528;28;19932;-57